sensor_id;sensor_type;location;lat;lon;timestamp;P1;durP1;ratioP1;P2;durP2;ratioP2
33495;SDS011;19836;55.812;37.560;2023-04-25T00:02:24;10.43;;;3.90;;
33495;SDS011;19836;55.812;37.560;2023-04-25T00:04:50;5.95;;;3.88;;
33495;SDS011;19836;55.812;37.560;2023-04-25T00:07:17;6.63;;;3.67;;
33495;SDS011;19836;55.812;37.560;2023-04-25T00:09:43;6.50;;;3.50;;
33495;SDS011;19836;55.812;37.560;2023-04-25T00:12:10;7.97;;;3.58;;
33495;SDS011;19836;55.812;37.560;2023-04-25T00:14:36;5.93;;;3.42;;
33495;SDS011;19836;55.812;37.560;2023-04-25T00:17:02;7.00;;;3.97;;
33495;SDS011;19836;55.812;37.560;2023-04-25T00:19:28;9.20;;;3.92;;
33495;SDS011;19836;55.812;37.560;2023-04-25T00:21:54;6.80;;;3.50;;
33495;SDS011;19836;55.812;37.560;2023-04-25T00:24:20;7.55;;;3.55;;
33495;SDS011;19836;55.812;37.560;2023-04-25T00:26:46;7.72;;;3.53;;
33495;SDS011;19836;55.812;37.560;2023-04-25T00:29:13;6.72;;;3.78;;
33495;SDS011;19836;55.812;37.560;2023-04-25T00:31:39;5.30;;;3.33;;
33495;SDS011;19836;55.812;37.560;2023-04-25T00:34:05;9.27;;;3.30;;
33495;SDS011;19836;55.812;37.560;2023-04-25T00:36:31;7.43;;;3.42;;
33495;SDS011;19836;55.812;37.560;2023-04-25T00:38:57;6.32;;;3.38;;
33495;SDS011;19836;55.812;37.560;2023-04-25T00:41:24;4.85;;;2.88;;
33495;SDS011;19836;55.812;37.560;2023-04-25T00:43:51;6.57;;;3.10;;
33495;SDS011;19836;55.812;37.560;2023-04-25T00:46:19;6.40;;;3.17;;
33495;SDS011;19836;55.812;37.560;2023-04-25T00:48:45;4.50;;;3.08;;
33495;SDS011;19836;55.812;37.560;2023-04-25T00:51:13;8.85;;;3.17;;
33495;SDS011;19836;55.812;37.560;2023-04-25T00:53:44;6.45;;;3.22;;
33495;SDS011;19836;55.812;37.560;2023-04-25T00:56:10;8.18;;;2.95;;
33495;SDS011;19836;55.812;37.560;2023-04-25T00:58:38;4.13;;;2.80;;
33495;SDS011;19836;55.812;37.560;2023-04-25T01:01:04;6.78;;;2.75;;
33495;SDS011;19836;55.812;37.560;2023-04-25T01:03:35;11.02;;;3.20;;
33495;SDS011;19836;55.812;37.560;2023-04-25T01:06:07;3.95;;;2.10;;
33495;SDS011;19836;55.812;37.560;2023-04-25T01:08:34;4.85;;;1.50;;
33495;SDS011;19836;55.812;37.560;2023-04-25T01:11:01;3.88;;;1.80;;
33495;SDS011;19836;55.812;37.560;2023-04-25T01:13:27;5.63;;;2.10;;
33495;SDS011;19836;55.812;37.560;2023-04-25T01:15:53;14.07;;;12.55;;
33495;SDS011;19836;55.812;37.560;2023-04-25T01:18:20;6.55;;;4.60;;
33495;SDS011;19836;55.812;37.560;2023-04-25T01:20:47;3.00;;;2.30;;
33495;SDS011;19836;55.812;37.560;2023-04-25T01:23:18;4.07;;;2.38;;
33495;SDS011;19836;55.812;37.560;2023-04-25T01:25:45;4.35;;;2.75;;
33495;SDS011;19836;55.812;37.560;2023-04-25T01:28:13;5.55;;;2.70;;
33495;SDS011;19836;55.812;37.560;2023-04-25T01:30:39;4.22;;;2.55;;
33495;SDS011;19836;55.812;37.560;2023-04-25T01:33:07;4.70;;;2.70;;
33495;SDS011;19836;55.812;37.560;2023-04-25T01:35:34;8.25;;;2.97;;
33495;SDS011;19836;55.812;37.560;2023-04-25T01:38:00;7.03;;;2.83;;
33495;SDS011;19836;55.812;37.560;2023-04-25T01:40:26;5.55;;;3.05;;
33495;SDS011;19836;55.812;37.560;2023-04-25T01:42:53;5.13;;;2.90;;
33495;SDS011;19836;55.812;37.560;2023-04-25T01:45:20;5.22;;;2.60;;
33495;SDS011;19836;55.812;37.560;2023-04-25T01:47:47;5.82;;;2.75;;
33495;SDS011;19836;55.812;37.560;2023-04-25T01:50:15;5.43;;;2.95;;
33495;SDS011;19836;55.812;37.560;2023-04-25T01:52:43;5.00;;;3.08;;
33495;SDS011;19836;55.812;37.560;2023-04-25T01:55:10;6.50;;;3.30;;
33495;SDS011;19836;55.812;37.560;2023-04-25T01:57:40;8.38;;;3.15;;
33495;SDS011;19836;55.812;37.560;2023-04-25T02:00:07;5.35;;;2.92;;
33495;SDS011;19836;55.812;37.560;2023-04-25T02:02:40;7.95;;;3.35;;
33495;SDS011;19836;55.812;37.560;2023-04-25T02:05:33;6.70;;;3.20;;
33495;SDS011;19836;55.812;37.560;2023-04-25T02:08:05;5.68;;;3.05;;
33495;SDS011;19836;55.812;37.560;2023-04-25T02:10:32;7.25;;;3.00;;
33495;SDS011;19836;55.812;37.560;2023-04-25T02:13:28;11.85;;;3.15;;
33495;SDS011;19836;55.812;37.560;2023-04-25T02:16:01;6.47;;;3.20;;
33495;SDS011;19836;55.812;37.560;2023-04-25T02:18:27;4.47;;;3.00;;
33495;SDS011;19836;55.812;37.560;2023-04-25T02:20:53;4.88;;;3.38;;
33495;SDS011;19836;55.812;37.560;2023-04-25T02:23:19;7.85;;;3.30;;
33495;SDS011;19836;55.812;37.560;2023-04-25T02:25:46;6.70;;;3.17;;
33495;SDS011;19836;55.812;37.560;2023-04-25T02:28:13;6.30;;;3.40;;
33495;SDS011;19836;55.812;37.560;2023-04-25T02:30:39;6.75;;;2.72;;
33495;SDS011;19836;55.812;37.560;2023-04-25T02:33:05;8.45;;;3.20;;
33495;SDS011;19836;55.812;37.560;2023-04-25T02:35:31;4.97;;;3.25;;
33495;SDS011;19836;55.812;37.560;2023-04-25T02:37:57;6.38;;;3.00;;
33495;SDS011;19836;55.812;37.560;2023-04-25T02:40:23;4.85;;;3.38;;
33495;SDS011;19836;55.812;37.560;2023-04-25T02:42:49;4.90;;;2.88;;
33495;SDS011;19836;55.812;37.560;2023-04-25T02:45:15;6.18;;;3.00;;
33495;SDS011;19836;55.812;37.560;2023-04-25T02:47:41;5.55;;;2.70;;
33495;SDS011;19836;55.812;37.560;2023-04-25T02:50:07;4.47;;;2.65;;
33495;SDS011;19836;55.812;37.560;2023-04-25T02:52:33;6.30;;;3.20;;
33495;SDS011;19836;55.812;37.560;2023-04-25T02:55:09;3.63;;;2.70;;
33495;SDS011;19836;55.812;37.560;2023-04-25T02:57:36;5.93;;;3.08;;
33495;SDS011;19836;55.812;37.560;2023-04-25T03:00:03;4.30;;;2.60;;
33495;SDS011;19836;55.812;37.560;2023-04-25T03:02:30;6.35;;;3.17;;
33495;SDS011;19836;55.812;37.560;2023-04-25T03:04:56;7.88;;;3.05;;
33495;SDS011;19836;55.812;37.560;2023-04-25T03:07:23;5.93;;;2.80;;
33495;SDS011;19836;55.812;37.560;2023-04-25T03:09:49;5.13;;;2.70;;
33495;SDS011;19836;55.812;37.560;2023-04-25T03:12:15;4.55;;;2.60;;
33495;SDS011;19836;55.812;37.560;2023-04-25T03:14:41;6.05;;;2.83;;
33495;SDS011;19836;55.812;37.560;2023-04-25T03:17:07;7.22;;;2.90;;
33495;SDS011;19836;55.812;37.560;2023-04-25T03:19:34;6.22;;;2.83;;
33495;SDS011;19836;55.812;37.560;2023-04-25T03:22:01;5.13;;;2.92;;
33495;SDS011;19836;55.812;37.560;2023-04-25T03:24:27;4.57;;;3.03;;
33495;SDS011;19836;55.812;37.560;2023-04-25T03:26:53;7.80;;;3.13;;
33495;SDS011;19836;55.812;37.560;2023-04-25T03:29:19;5.57;;;2.45;;
33495;SDS011;19836;55.812;37.560;2023-04-25T03:34:16;4.03;;;2.70;;
33495;SDS011;19836;55.812;37.560;2023-04-25T03:36:42;8.15;;;2.50;;
33495;SDS011;19836;55.812;37.560;2023-04-25T03:39:09;6.03;;;3.08;;
33495;SDS011;19836;55.812;37.560;2023-04-25T03:41:35;5.68;;;2.75;;
33495;SDS011;19836;55.812;37.560;2023-04-25T03:44:06;3.00;;;2.50;;
33495;SDS011;19836;55.812;37.560;2023-04-25T03:46:32;6.45;;;2.58;;
33495;SDS011;19836;55.812;37.560;2023-04-25T03:48:58;6.10;;;3.05;;
33495;SDS011;19836;55.812;37.560;2023-04-25T03:51:34;7.40;;;2.80;;
33495;SDS011;19836;55.812;37.560;2023-04-25T03:54:01;9.35;;;2.85;;
33495;SDS011;19836;55.812;37.560;2023-04-25T03:56:30;7.47;;;3.00;;
33495;SDS011;19836;55.812;37.560;2023-04-25T03:59:04;7.35;;;3.10;;
33495;SDS011;19836;55.812;37.560;2023-04-25T04:01:31;8.57;;;4.28;;
33495;SDS011;19836;55.812;37.560;2023-04-25T04:03:57;6.70;;;3.20;;
33495;SDS011;19836;55.812;37.560;2023-04-25T04:06:24;9.10;;;3.60;;
33495;SDS011;19836;55.812;37.560;2023-04-25T04:08:57;12.55;;;3.78;;
33495;SDS011;19836;55.812;37.560;2023-04-25T04:11:23;6.90;;;2.92;;
33495;SDS011;19836;55.812;37.560;2023-04-25T04:13:49;7.32;;;3.28;;
33495;SDS011;19836;55.812;37.560;2023-04-25T04:16:16;4.85;;;3.30;;
33495;SDS011;19836;55.812;37.560;2023-04-25T04:18:42;8.35;;;3.88;;
33495;SDS011;19836;55.812;37.560;2023-04-25T04:21:08;8.02;;;4.15;;
33495;SDS011;19836;55.812;37.560;2023-04-25T04:23:38;6.20;;;4.18;;
33495;SDS011;19836;55.812;37.560;2023-04-25T04:26:05;8.25;;;4.30;;
33495;SDS011;19836;55.812;37.560;2023-04-25T04:29:10;16.05;;;6.53;;
33495;SDS011;19836;55.812;37.560;2023-04-25T04:31:47;8.40;;;4.97;;
33495;SDS011;19836;55.812;37.560;2023-04-25T04:34:16;10.60;;;5.03;;
33495;SDS011;19836;55.812;37.560;2023-04-25T04:36:47;10.82;;;5.70;;
33495;SDS011;19836;55.812;37.560;2023-04-25T04:39:13;27.60;;;6.82;;
33495;SDS011;19836;55.812;37.560;2023-04-25T04:42:03;11.82;;;5.45;;
33495;SDS011;19836;55.812;37.560;2023-04-25T04:44:49;11.27;;;5.82;;
33495;SDS011;19836;55.812;37.560;2023-04-25T04:47:36;13.00;;;6.32;;
33495;SDS011;19836;55.812;37.560;2023-04-25T04:50:23;13.80;;;6.13;;
33495;SDS011;19836;55.812;37.560;2023-04-25T04:53:07;10.10;;;5.97;;
33495;SDS011;19836;55.812;37.560;2023-04-25T04:55:59;10.90;;;6.30;;
33495;SDS011;19836;55.812;37.560;2023-04-25T04:58:52;35.33;;;7.55;;
33495;SDS011;19836;55.812;37.560;2023-04-25T05:01:40;90.38;;;11.48;;
33495;SDS011;19836;55.812;37.560;2023-04-25T05:04:23;8.93;;;5.20;;
33495;SDS011;19836;55.812;37.560;2023-04-25T05:06:58;15.60;;;6.07;;
33495;SDS011;19836;55.812;37.560;2023-04-25T05:09:30;9.30;;;5.47;;
33495;SDS011;19836;55.812;37.560;2023-04-25T05:12:29;7.07;;;5.28;;
33495;SDS011;19836;55.812;37.560;2023-04-25T05:15:16;10.20;;;6.10;;
33495;SDS011;19836;55.812;37.560;2023-04-25T05:18:11;9.07;;;5.55;;
33495;SDS011;19836;55.812;37.560;2023-04-25T05:21:00;11.23;;;5.35;;
33495;SDS011;19836;55.812;37.560;2023-04-25T05:23:55;11.80;;;5.10;;
33495;SDS011;19836;55.812;37.560;2023-04-25T05:26:41;14.32;;;5.07;;
33495;SDS011;19836;55.812;37.560;2023-04-25T05:29:25;13.10;;;4.60;;
33495;SDS011;19836;55.812;37.560;2023-04-25T05:32:10;6.32;;;4.30;;
33495;SDS011;19836;55.812;37.560;2023-04-25T05:34:36;10.88;;;4.55;;
33495;SDS011;19836;55.812;37.560;2023-04-25T05:37:05;15.88;;;4.50;;
33495;SDS011;19836;55.812;37.560;2023-04-25T05:39:35;8.68;;;4.47;;
33495;SDS011;19836;55.812;37.560;2023-04-25T05:42:25;11.00;;;4.85;;
33495;SDS011;19836;55.812;37.560;2023-04-25T05:45:02;9.13;;;4.70;;
33495;SDS011;19836;55.812;37.560;2023-04-25T05:47:38;7.45;;;4.25;;
33495;SDS011;19836;55.812;37.560;2023-04-25T05:50:24;7.50;;;4.63;;
33495;SDS011;19836;55.812;37.560;2023-04-25T05:52:57;5.65;;;4.18;;
33495;SDS011;19836;55.812;37.560;2023-04-25T05:55:26;7.60;;;4.50;;
33495;SDS011;19836;55.812;37.560;2023-04-25T05:57:53;10.27;;;3.95;;
33495;SDS011;19836;55.812;37.560;2023-04-25T06:00:19;5.40;;;3.95;;
33495;SDS011;19836;55.812;37.560;2023-04-25T06:02:48;7.85;;;3.80;;
33495;SDS011;19836;55.812;37.560;2023-04-25T06:05:14;9.68;;;4.05;;
33495;SDS011;19836;55.812;37.560;2023-04-25T06:07:40;9.52;;;4.13;;
33495;SDS011;19836;55.812;37.560;2023-04-25T06:10:06;9.18;;;4.40;;
33495;SDS011;19836;55.812;37.560;2023-04-25T06:12:33;7.90;;;3.70;;
33495;SDS011;19836;55.812;37.560;2023-04-25T06:15:00;7.30;;;3.65;;
33495;SDS011;19836;55.812;37.560;2023-04-25T06:17:26;5.82;;;3.50;;
33495;SDS011;19836;55.812;37.560;2023-04-25T06:19:52;7.38;;;3.85;;
33495;SDS011;19836;55.812;37.560;2023-04-25T06:22:18;5.88;;;3.40;;
33495;SDS011;19836;55.812;37.560;2023-04-25T06:24:44;8.50;;;3.65;;
33495;SDS011;19836;55.812;37.560;2023-04-25T06:27:11;7.63;;;3.80;;
33495;SDS011;19836;55.812;37.560;2023-04-25T06:29:38;4.03;;;3.45;;
33495;SDS011;19836;55.812;37.560;2023-04-25T06:32:04;9.52;;;3.38;;
33495;SDS011;19836;55.812;37.560;2023-04-25T06:34:30;6.30;;;3.40;;
33495;SDS011;19836;55.812;37.560;2023-04-25T06:36:57;5.03;;;3.28;;
33495;SDS011;19836;55.812;37.560;2023-04-25T06:39:24;7.72;;;5.20;;
33495;SDS011;19836;55.812;37.560;2023-04-25T06:41:50;12.02;;;3.72;;
33495;SDS011;19836;55.812;37.560;2023-04-25T06:44:37;8.23;;;3.45;;
33495;SDS011;19836;55.812;37.560;2023-04-25T06:47:06;6.63;;;3.15;;
33495;SDS011;19836;55.812;37.560;2023-04-25T06:49:32;5.32;;;3.05;;
33495;SDS011;19836;55.812;37.560;2023-04-25T06:51:58;5.13;;;2.90;;
33495;SDS011;19836;55.812;37.560;2023-04-25T06:54:24;5.25;;;3.30;;
33495;SDS011;19836;55.812;37.560;2023-04-25T06:57:00;4.60;;;2.95;;
33495;SDS011;19836;55.812;37.560;2023-04-25T06:59:27;5.30;;;2.80;;
33495;SDS011;19836;55.812;37.560;2023-04-25T07:01:53;5.68;;;3.22;;
33495;SDS011;19836;55.812;37.560;2023-04-25T07:04:24;8.00;;;3.38;;
33495;SDS011;19836;55.812;37.560;2023-04-25T07:06:55;8.35;;;3.25;;
33495;SDS011;19836;55.812;37.560;2023-04-25T07:09:41;5.82;;;3.13;;
33495;SDS011;19836;55.812;37.560;2023-04-25T07:12:07;5.72;;;3.90;;
33495;SDS011;19836;55.812;37.560;2023-04-25T07:14:34;4.93;;;3.50;;
33495;SDS011;19836;55.812;37.560;2023-04-25T07:17:00;10.48;;;6.00;;
33495;SDS011;19836;55.812;37.560;2023-04-25T07:19:28;8.20;;;4.03;;
33495;SDS011;19836;55.812;37.560;2023-04-25T07:21:58;7.18;;;4.25;;
33495;SDS011;19836;55.812;37.560;2023-04-25T07:24:24;10.80;;;6.32;;
33495;SDS011;19836;55.812;37.560;2023-04-25T07:26:53;7.50;;;4.68;;
33495;SDS011;19836;55.812;37.560;2023-04-25T07:29:28;6.72;;;4.30;;
33495;SDS011;19836;55.812;37.560;2023-04-25T07:31:58;8.57;;;4.13;;
33495;SDS011;19836;55.812;37.560;2023-04-25T07:34:24;8.18;;;4.50;;
33495;SDS011;19836;55.812;37.560;2023-04-25T07:36:50;10.38;;;4.20;;
33495;SDS011;19836;55.812;37.560;2023-04-25T07:39:16;8.35;;;4.05;;
33495;SDS011;19836;55.812;37.560;2023-04-25T07:41:43;7.50;;;2.80;;
33495;SDS011;19836;55.812;37.560;2023-04-25T07:44:15;5.32;;;2.95;;
33495;SDS011;19836;55.812;37.560;2023-04-25T07:46:41;6.40;;;3.40;;
33495;SDS011;19836;55.812;37.560;2023-04-25T07:49:10;6.43;;;3.22;;
33495;SDS011;19836;55.812;37.560;2023-04-25T07:51:37;7.85;;;3.38;;
33495;SDS011;19836;55.812;37.560;2023-04-25T07:54:08;6.03;;;3.42;;
33495;SDS011;19836;55.812;37.560;2023-04-25T07:56:41;8.45;;;3.38;;
33495;SDS011;19836;55.812;37.560;2023-04-25T07:59:07;7.13;;;3.45;;
33495;SDS011;19836;55.812;37.560;2023-04-25T08:01:34;9.25;;;3.60;;
33495;SDS011;19836;55.812;37.560;2023-04-25T08:04:02;8.65;;;4.50;;
33495;SDS011;19836;55.812;37.560;2023-04-25T08:06:43;6.20;;;3.10;;
33495;SDS011;19836;55.812;37.560;2023-04-25T08:09:16;5.13;;;2.95;;
33495;SDS011;19836;55.812;37.560;2023-04-25T08:11:42;10.20;;;3.40;;
33495;SDS011;19836;55.812;37.560;2023-04-25T08:14:11;5.72;;;2.97;;
33495;SDS011;19836;55.812;37.560;2023-04-25T08:16:39;9.55;;;3.30;;
33495;SDS011;19836;55.812;37.560;2023-04-25T08:19:06;8.55;;;3.28;;
33495;SDS011;19836;55.812;37.560;2023-04-25T08:21:32;5.38;;;2.95;;
33495;SDS011;19836;55.812;37.560;2023-04-25T08:24:02;9.30;;;3.50;;
33495;SDS011;19836;55.812;37.560;2023-04-25T08:26:32;7.03;;;2.90;;
33495;SDS011;19836;55.812;37.560;2023-04-25T08:28:59;7.20;;;3.33;;
33495;SDS011;19836;55.812;37.560;2023-04-25T08:31:25;6.40;;;3.10;;
33495;SDS011;19836;55.812;37.560;2023-04-25T08:33:56;7.55;;;3.40;;
33495;SDS011;19836;55.812;37.560;2023-04-25T08:38:53;9.73;;;3.17;;
33495;SDS011;19836;55.812;37.560;2023-04-25T08:41:21;4.57;;;2.85;;
33495;SDS011;19836;55.812;37.560;2023-04-25T08:43:48;5.55;;;2.70;;
33495;SDS011;19836;55.812;37.560;2023-04-25T08:46:15;8.63;;;6.70;;
33495;SDS011;19836;55.812;37.560;2023-04-25T08:49:03;3.95;;;2.90;;
33495;SDS011;19836;55.812;37.560;2023-04-25T08:51:33;4.25;;;2.78;;
33495;SDS011;19836;55.812;37.560;2023-04-25T08:54:08;5.07;;;2.50;;
33495;SDS011;19836;55.812;37.560;2023-04-25T08:56:37;3.90;;;2.50;;
33495;SDS011;19836;55.812;37.560;2023-04-25T08:59:04;4.30;;;2.30;;
33495;SDS011;19836;55.812;37.560;2023-04-25T09:01:34;4.68;;;2.60;;
33495;SDS011;19836;55.812;37.560;2023-04-25T09:04:03;5.05;;;2.50;;
33495;SDS011;19836;55.812;37.560;2023-04-25T09:06:31;4.35;;;2.60;;
33495;SDS011;19836;55.812;37.560;2023-04-25T09:09:05;6.40;;;2.60;;
33495;SDS011;19836;55.812;37.560;2023-04-25T09:11:32;5.05;;;2.22;;
33495;SDS011;19836;55.812;37.560;2023-04-25T09:14:12;6.05;;;2.63;;
33495;SDS011;19836;55.812;37.560;2023-04-25T09:17:03;4.03;;;2.63;;
33495;SDS011;19836;55.812;37.560;2023-04-25T09:19:53;3.60;;;2.50;;
33495;SDS011;19836;55.812;37.560;2023-04-25T09:22:26;5.03;;;2.40;;
33495;SDS011;19836;55.812;37.560;2023-04-25T09:24:52;5.55;;;3.00;;
33495;SDS011;19836;55.812;37.560;2023-04-25T09:27:21;5.28;;;3.33;;
33495;SDS011;19836;55.812;37.560;2023-04-25T09:30:08;5.68;;;2.58;;
33495;SDS011;19836;55.812;37.560;2023-04-25T09:33:03;4.90;;;2.13;;
33495;SDS011;19836;55.812;37.560;2023-04-25T09:35:39;4.25;;;2.60;;
33495;SDS011;19836;55.812;37.560;2023-04-25T09:38:12;7.13;;;2.60;;
33495;SDS011;19836;55.812;37.560;2023-04-25T09:41:09;5.03;;;2.75;;
33495;SDS011;19836;55.812;37.560;2023-04-25T09:43:44;5.72;;;2.85;;
33495;SDS011;19836;55.812;37.560;2023-04-25T09:46:12;6.25;;;2.63;;
33495;SDS011;19836;55.812;37.560;2023-04-25T09:48:50;4.38;;;3.10;;
33495;SDS011;19836;55.812;37.560;2023-04-25T09:51:21;3.95;;;2.95;;
33495;SDS011;19836;55.812;37.560;2023-04-25T09:53:52;7.28;;;3.00;;
33495;SDS011;19836;55.812;37.560;2023-04-25T09:56:24;8.57;;;3.40;;
33495;SDS011;19836;55.812;37.560;2023-04-25T09:58:56;10.27;;;4.03;;
33495;SDS011;19836;55.812;37.560;2023-04-25T10:01:22;6.65;;;3.10;;
33495;SDS011;19836;55.812;37.560;2023-04-25T10:04:03;4.82;;;3.53;;
33495;SDS011;19836;55.812;37.560;2023-04-25T10:06:46;5.78;;;3.83;;
33495;SDS011;19836;55.812;37.560;2023-04-25T10:09:16;7.38;;;3.72;;
33495;SDS011;19836;55.812;37.560;2023-04-25T10:11:45;6.30;;;3.60;;
33495;SDS011;19836;55.812;37.560;2023-04-25T10:14:13;4.60;;;3.72;;
33495;SDS011;19836;55.812;37.560;2023-04-25T10:16:40;11.07;;;3.40;;
33495;SDS011;19836;55.812;37.560;2023-04-25T10:19:07;4.35;;;2.75;;
33495;SDS011;19836;55.812;37.560;2023-04-25T10:21:33;5.40;;;3.33;;
33495;SDS011;19836;55.812;37.560;2023-04-25T10:24:02;5.20;;;3.50;;
33495;SDS011;19836;55.812;37.560;2023-04-25T10:26:28;6.28;;;3.05;;
33495;SDS011;19836;55.812;37.560;2023-04-25T10:28:59;3.58;;;2.92;;
33495;SDS011;19836;55.812;37.560;2023-04-25T10:31:31;4.68;;;3.00;;
33495;SDS011;19836;55.812;37.560;2023-04-25T10:33:59;8.45;;;3.88;;
33495;SDS011;19836;55.812;37.560;2023-04-25T10:36:26;4.63;;;3.63;;
33495;SDS011;19836;55.812;37.560;2023-04-25T10:38:58;6.15;;;3.15;;
33495;SDS011;19836;55.812;37.560;2023-04-25T10:41:32;3.88;;;3.20;;
33495;SDS011;19836;55.812;37.560;2023-04-25T10:44:11;11.27;;;3.70;;
33495;SDS011;19836;55.812;37.560;2023-04-25T10:46:37;6.70;;;3.10;;
33495;SDS011;19836;55.812;37.560;2023-04-25T10:49:03;5.38;;;3.03;;
33495;SDS011;19836;55.812;37.560;2023-04-25T10:51:32;76.82;;;7.93;;
33495;SDS011;19836;55.812;37.560;2023-04-25T10:56:29;7.85;;;2.42;;
33495;SDS011;19836;55.812;37.560;2023-04-25T10:59:14;5.20;;;2.30;;
33495;SDS011;19836;55.812;37.560;2023-04-25T11:01:43;6.45;;;2.13;;
33495;SDS011;19836;55.812;37.560;2023-04-25T11:04:23;4.35;;;2.03;;
33495;SDS011;19836;55.812;37.560;2023-04-25T11:09:48;4.65;;;1.83;;
33495;SDS011;19836;55.812;37.560;2023-04-25T11:12:14;3.42;;;2.20;;
33495;SDS011;19836;55.812;37.560;2023-04-25T11:14:41;2.85;;;2.08;;
33495;SDS011;19836;55.812;37.560;2023-04-25T11:17:07;3.33;;;1.70;;
33495;SDS011;19836;55.812;37.560;2023-04-25T11:19:34;3.92;;;1.77;;
33495;SDS011;19836;55.812;37.560;2023-04-25T11:22:00;5.07;;;1.83;;
33495;SDS011;19836;55.812;37.560;2023-04-25T11:24:31;3.28;;;1.67;;
33495;SDS011;19836;55.812;37.560;2023-04-25T11:26:59;4.93;;;1.52;;
33495;SDS011;19836;55.812;37.560;2023-04-25T11:29:31;3.13;;;1.35;;
33495;SDS011;19836;55.812;37.560;2023-04-25T11:31:58;1.88;;;1.50;;
33495;SDS011;19836;55.812;37.560;2023-04-25T11:34:24;4.07;;;1.60;;
33495;SDS011;19836;55.812;37.560;2023-04-25T11:36:51;18.55;;;2.38;;
33495;SDS011;19836;55.812;37.560;2023-04-25T11:39:18;2.80;;;1.50;;
33495;SDS011;19836;55.812;37.560;2023-04-25T11:41:45;2.00;;;1.50;;
33495;SDS011;19836;55.812;37.560;2023-04-25T11:44:12;4.05;;;1.92;;
33495;SDS011;19836;55.812;37.560;2023-04-25T11:46:41;5.00;;;1.80;;
33495;SDS011;19836;55.812;37.560;2023-04-25T11:49:08;5.10;;;1.73;;
33495;SDS011;19836;55.812;37.560;2023-04-25T11:51:40;3.15;;;1.50;;
33495;SDS011;19836;55.812;37.560;2023-04-25T11:54:08;3.55;;;1.63;;
33495;SDS011;19836;55.812;37.560;2023-04-25T11:56:35;18.48;;;2.53;;
33495;SDS011;19836;55.812;37.560;2023-04-25T11:59:02;8.10;;;2.08;;
33495;SDS011;19836;55.812;37.560;2023-04-25T12:01:30;7.82;;;3.30;;
33495;SDS011;19836;55.812;37.560;2023-04-25T12:03:58;13.38;;;2.30;;
33495;SDS011;19836;55.812;37.560;2023-04-25T12:06:38;5.65;;;1.48;;
33495;SDS011;19836;55.812;37.560;2023-04-25T12:09:08;3.15;;;1.05;;
33495;SDS011;19836;55.812;37.560;2023-04-25T12:11:42;3.00;;;1.27;;
33495;SDS011;19836;55.812;37.560;2023-04-25T12:14:19;5.05;;;2.67;;
33495;SDS011;19836;55.812;37.560;2023-04-25T12:19:20;4.57;;;1.70;;
33495;SDS011;19836;55.812;37.560;2023-04-25T12:21:47;3.35;;;1.70;;
33495;SDS011;19836;55.812;37.560;2023-04-25T12:24:15;4.75;;;1.90;;
33495;SDS011;19836;55.812;37.560;2023-04-25T12:26:51;3.28;;;1.83;;
33495;SDS011;19836;55.812;37.560;2023-04-25T12:29:19;2.38;;;1.58;;
33495;SDS011;19836;55.812;37.560;2023-04-25T12:31:47;3.03;;;1.83;;
33495;SDS011;19836;55.812;37.560;2023-04-25T12:34:13;6.03;;;2.00;;
33495;SDS011;19836;55.812;37.560;2023-04-25T12:36:39;2.78;;;1.70;;
33495;SDS011;19836;55.812;37.560;2023-04-25T12:39:05;3.55;;;1.83;;
33495;SDS011;19836;55.812;37.560;2023-04-25T12:41:32;2.55;;;1.65;;
33495;SDS011;19836;55.812;37.560;2023-04-25T12:43:58;5.07;;;3.03;;
33495;SDS011;19836;55.812;37.560;2023-04-25T12:46:24;3.60;;;2.15;;
33495;SDS011;19836;55.812;37.560;2023-04-25T12:48:50;5.07;;;3.28;;
33495;SDS011;19836;55.812;37.560;2023-04-25T12:51:16;4.20;;;2.60;;
33495;SDS011;19836;55.812;37.560;2023-04-25T12:53:42;6.38;;;2.30;;
33495;SDS011;19836;55.812;37.560;2023-04-25T12:56:08;3.58;;;1.70;;
33495;SDS011;19836;55.812;37.560;2023-04-25T12:58:34;3.85;;;2.05;;
33495;SDS011;19836;55.812;37.560;2023-04-25T13:01:00;4.45;;;1.77;;
33495;SDS011;19836;55.812;37.560;2023-04-25T13:03:26;3.92;;;1.77;;
33495;SDS011;19836;55.812;37.560;2023-04-25T13:05:52;3.92;;;2.20;;
33495;SDS011;19836;55.812;37.560;2023-04-25T13:08:20;6.28;;;1.73;;
33495;SDS011;19836;55.812;37.560;2023-04-25T13:10:50;4.43;;;1.70;;
33495;SDS011;19836;55.812;37.560;2023-04-25T13:13:16;5.03;;;1.88;;
33495;SDS011;19836;55.812;37.560;2023-04-25T13:15:42;3.20;;;1.73;;
33495;SDS011;19836;55.812;37.560;2023-04-25T13:18:08;2.55;;;1.50;;
33495;SDS011;19836;55.812;37.560;2023-04-25T13:20:35;2.53;;;2.10;;
33495;SDS011;19836;55.812;37.560;2023-04-25T13:23:01;4.60;;;2.72;;
33495;SDS011;19836;55.812;37.560;2023-04-25T13:25:26;3.17;;;2.28;;
33495;SDS011;19836;55.812;37.560;2023-04-25T13:27:53;11.95;;;2.90;;
33495;SDS011;19836;55.812;37.560;2023-04-25T13:30:19;3.80;;;2.17;;
33495;SDS011;19836;55.812;37.560;2023-04-25T13:32:45;6.45;;;2.33;;
33495;SDS011;19836;55.812;37.560;2023-04-25T13:35:12;3.95;;;1.98;;
33495;SDS011;19836;55.812;37.560;2023-04-25T13:37:39;3.30;;;1.90;;
33495;SDS011;19836;55.812;37.560;2023-04-25T13:40:06;5.63;;;2.03;;
33495;SDS011;19836;55.812;37.560;2023-04-25T13:42:35;4.57;;;3.10;;
33495;SDS011;19836;55.812;37.560;2023-04-25T13:45:02;4.00;;;2.20;;
33495;SDS011;19836;55.812;37.560;2023-04-25T13:47:29;3.83;;;2.28;;
33495;SDS011;19836;55.812;37.560;2023-04-25T13:49:56;6.93;;;2.30;;
33495;SDS011;19836;55.812;37.560;2023-04-25T13:52:22;6.75;;;2.53;;
33495;SDS011;19836;55.812;37.560;2023-04-25T13:54:49;5.88;;;2.63;;
33495;SDS011;19836;55.812;37.560;2023-04-25T13:57:16;5.32;;;2.35;;
33495;SDS011;19836;55.812;37.560;2023-04-25T13:59:42;5.95;;;2.47;;
33495;SDS011;19836;55.812;37.560;2023-04-25T14:02:08;2.75;;;2.10;;
33495;SDS011;19836;55.812;37.560;2023-04-25T14:04:35;5.70;;;2.13;;
33495;SDS011;19836;55.812;37.560;2023-04-25T14:07:01;4.30;;;2.35;;
33495;SDS011;19836;55.812;37.560;2023-04-25T14:09:28;4.68;;;2.28;;
33495;SDS011;19836;55.812;37.560;2023-04-25T14:11:54;7.30;;;2.50;;
33495;SDS011;19836;55.812;37.560;2023-04-25T14:14:21;5.53;;;2.25;;
33495;SDS011;19836;55.812;37.560;2023-04-25T14:16:47;4.18;;;2.35;;
33495;SDS011;19836;55.812;37.560;2023-04-25T14:19:14;4.93;;;2.33;;
33495;SDS011;19836;55.812;37.560;2023-04-25T14:21:40;5.18;;;2.45;;
33495;SDS011;19836;55.812;37.560;2023-04-25T14:24:08;28.70;;;3.72;;
33495;SDS011;19836;55.812;37.560;2023-04-25T14:26:34;112.82;;;9.48;;
33495;SDS011;19836;55.812;37.560;2023-04-25T14:29:01;16.20;;;2.78;;
33495;SDS011;19836;55.812;37.560;2023-04-25T14:31:28;3.15;;;1.73;;
33495;SDS011;19836;55.812;37.560;2023-04-25T14:33:53;4.15;;;1.80;;
33495;SDS011;19836;55.812;37.560;2023-04-25T14:36:19;6.20;;;2.20;;
33495;SDS011;19836;55.812;37.560;2023-04-25T14:38:45;5.35;;;2.33;;
33495;SDS011;19836;55.812;37.560;2023-04-25T14:41:12;3.58;;;2.30;;
33495;SDS011;19836;55.812;37.560;2023-04-25T14:43:38;6.82;;;3.65;;
33495;SDS011;19836;55.812;37.560;2023-04-25T14:46:06;5.15;;;2.10;;
33495;SDS011;19836;55.812;37.560;2023-04-25T14:48:32;3.60;;;2.25;;
33495;SDS011;19836;55.812;37.560;2023-04-25T14:50:59;4.55;;;1.90;;
33495;SDS011;19836;55.812;37.560;2023-04-25T14:53:26;3.97;;;1.92;;
33495;SDS011;19836;55.812;37.560;2023-04-25T14:55:52;3.90;;;2.30;;
33495;SDS011;19836;55.812;37.560;2023-04-25T14:58:19;2.95;;;1.80;;
33495;SDS011;19836;55.812;37.560;2023-04-25T15:00:45;4.05;;;2.28;;
33495;SDS011;19836;55.812;37.560;2023-04-25T15:03:12;3.15;;;2.20;;